Have a Safe July 4th! 

Flight Track Log - Related Links

Times and Time Zones

All times are in EDT time to prevent confusion due to time zone crossing. See the BER7249 flight status page for this flight to view local times or setup timezone preferences in your user account.

Time Position Orientation Groundspeed Altitude Reporting Facility
EDT Latitude Longitude Course Direction KTS MPH feet Rate Location/Type
Wed 07:26:57 PM 40.6300 -73.7750 118° Southeast 166 191 700  Level FlightAware ADS-B
Wed 07:27:27 PM 40.6140 -73.7500 130° Southeast 180 207 1,600 1,333 Climbing FlightAware ADS-B
Wed 07:27:42 PM 40.6060 -73.7380 131° Southeast 199 229 1,700 800 Climbing FlightAware ADS-B
Wed 07:27:57 PM 40.5990 -73.7210 118° Southeast 232 267 2,000 960 Climbing FlightAware ADS-B
Wed 07:28:07 PM 40.5980 -73.7100 97° East 254 292 2,100 1,400 Climbing FlightAware ADS-B
Wed 07:28:27 PM 40.6060 -73.6740 74° East 291 335 2,700 2,400 Climbing FlightAware ADS-B
Wed 07:28:52 PM 40.6230 -73.6340 61° Northeast 298 343 3,900 2,700 Climbing FlightAware ADS-B
Wed 07:29:07 PM 40.6390 -73.6140 43° Northeast 306 352 4,500 2,400 Climbing FlightAware ADS-B
Wed 07:29:37 PM 40.6740 -73.5790 37° Northeast 321 369 5,700 2,400 Climbing FlightAware ADS-B
Wed 07:30:02 PM 40.7030 -73.5490 38° Northeast 327 376 6,700 2,640 Climbing FlightAware ADS-B
Wed 07:30:27 PM 40.7330 -73.5170 39° Northeast 328 377 7,900 2,500 Climbing FlightAware ADS-B
Wed 07:31:02 PM 40.7710 -73.4730 41° Northeast 337 388 9,200 1,900 Climbing FlightAware ADS-B
Wed 07:31:27 PM 40.8020 -73.4390 40° Northeast 340 391 9,800 1,527 Climbing FlightAware ADS-B
Wed 07:31:57 PM 40.8430 -73.4040 33° Northeast 334 384 10,600 1,286 Climbing FlightAware ADS-B
Wed 07:32:37 PM 40.9060 -73.3970 North 366 421 11,300 1,200 Climbing FlightAware ADS-B
Wed 07:33:22 PM 40.9850 -73.3850 North 399 459 12,300 1,694 Climbing FlightAware ADS-B
Wed 07:34:02 PM 41.0610 -73.3740 North 407 468 13,700 1,950 Climbing FlightAware ADS-B
Wed 07:34:42 PM 41.1290 -73.3640 North 417 480 14,900 1,906 Climbing FlightAware ADS-B
Wed 07:35:27 PM 41.2240 -73.3510 North 428 493 16,400 1,800 Climbing FlightAware ADS-B
Wed 07:36:22 PM 41.3350 -73.3350 North 444 511 17,900 1,667 Climbing FlightAware ADS-B
Wed 07:36:57 PM 41.4050 -73.3250 North 451 519 18,900 1,200 Climbing FlightAware ADS-B
Wed 07:37:47 PM 41.5040 -73.2950 13° North 461 531 19,600 1,600 Climbing FlightAware ADS-B
Wed 07:38:12 PM 41.5510 -73.2370 43° Northeast 475 547 20,900 1,114 Climbing FlightAware ADS-B
Wed 07:38:57 PM 41.6220 -73.1730 34° Northeast 475 547 20,900  Level FlightAware ADS-B
Wed 07:39:37 PM 41.6840 -73.1170 34° Northeast 475 547 20,900 2,250 Level FlightAware ADS-B
Wed 07:40:17 PM 41.8120 -73.1930 336° Northwest 474 545 23,900 2,475 Climbing FlightAware ADS-B
Wed 07:40:57 PM 41.8990 -73.2020 356° North 481 554 24,200 225 Climbing FlightAware ADS-B
Wed 07:41:37 PM 41.9750 -73.2110 355° North 481 554 24,200 933 Level FlightAware ADS-B
Wed 07:42:27 PM 42.0990 -73.2230 356° North 495 570 25,600 1,800 Climbing FlightAware ADS-B
Wed 07:43:07 PM 42.2030 -73.2320 356° North 505 581 26,900 1,244 Climbing FlightAware ADS-B
Wed 07:43:57 PM 42.2920 -73.2390 357° North 27,700 947 Climbing FlightAware ADS-B
Wed 07:44:42 PM 42.3780 -73.2310 North 515 593 28,400 933 Climbing FlightAware ADS-B
Wed 07:45:27 PM 42.4690 -73.2040 12° North 527 606 29,100 1,000 Climbing FlightAware ADS-B
Wed 07:46:12 PM 42.6280 -73.1030 25° Northeast 537 618 29,900 1,020 Climbing FlightAware ADS-B
Wed 07:47:07 PM 42.7340 -72.9810 40° Northeast 536 617 30,800 1,074 Climbing FlightAware ADS-B
Wed 07:47:47 PM 42.8000 -72.8810 48° Northeast 531 611 31,600 1,200 Climbing FlightAware ADS-B
Wed 07:48:22 PM 42.8710 -72.8260 30° Northeast 518 596 32,300 1,129 Climbing FlightAware ADS-B
Wed 07:49:12 PM 42.9810 -72.7620 23° Northeast 515 593 33,200 867 Climbing FlightAware ADS-B
Wed 07:49:52 PM 43.0510 -72.6960 35° Northeast 524 603 33,600 635 Climbing FlightAware ADS-B
Wed 07:50:37 PM 43.1230 -72.5600 54° Northeast 528 608 34,100 635 Climbing FlightAware ADS-B
Wed 07:51:17 PM 43.1780 -72.4490 56° Northeast 531 611 34,500 750 Climbing FlightAware ADS-B
Wed 07:51:57 PM 43.2320 -72.3400 56° Northeast 527 606 35,100 635 Climbing FlightAware ADS-B
Wed 07:52:42 PM 43.2930 -72.2180 55° Northeast 532 612 35,400 565 Climbing FlightAware ADS-B
Wed 07:53:22 PM 43.3480 -72.1060 56° Northeast 529 609 35,900 706 Climbing FlightAware ADS-B
Wed 07:54:07 PM 43.4100 -71.9780 56° Northeast 529 609 36,400 565 Climbing FlightAware ADS-B
Wed 07:54:47 PM 43.4660 -71.8650 56° Northeast 531 611 36,700 450 Climbing FlightAware ADS-B
Wed 07:55:27 PM 43.5190 -71.7550 56° Northeast 519 597 37,000 212 Climbing FlightAware ADS-B
Wed 07:56:12 PM 43.5780 -71.6320 56° Northeast 515 593 37,000  Level FlightAware ADS-B
Wed 07:56:52 PM 43.6300 -71.5260 56° Northeast 511 588 37,000  Level FlightAware ADS-B
Wed 07:57:37 PM 43.6890 -71.4020 57° Northeast 504 580 37,000  Level FlightAware ADS-B
Wed 07:58:17 PM 43.7410 -71.2950 56° Northeast 508 585 37,000  Level FlightAware ADS-B
Wed 07:58:57 PM 43.7920 -71.1870 57° Northeast 515 593 37,000  Level FlightAware ADS-B
Wed 07:59:42 PM 43.8500 -71.0640 57° Northeast 514 592 37,000  Level FlightAware ADS-B
Wed 08:00:22 PM 43.9020 -70.9550 56° Northeast 510 587 37,000  Level FlightAware ADS-B
Wed 08:01:07 PM 43.9610 -70.8300 57° Northeast 500 575 37,000  Level FlightAware ADS-B
Wed 08:01:47 PM 44.0120 -70.7220 57° Northeast 500 575 37,000  Level FlightAware ADS-B
Wed 08:02:27 PM 44.0620 -70.6150 57° Northeast 490 564 37,000  Level FlightAware ADS-B
Wed 08:03:12 PM 44.1150 -70.5000 57° Northeast 482 555 37,000  Level FlightAware ADS-B
Wed 08:03:52 PM 44.1620 -70.4000 57° Northeast 481 554 37,000  Level FlightAware ADS-B
Wed 08:04:37 PM 44.2170 -70.2810 57° Northeast 482 555 37,000  Level FlightAware ADS-B
Wed 08:05:17 PM 44.2660 -70.1740 57° Northeast 480 552 37,000  Level FlightAware ADS-B
Wed 08:06:02 PM 44.3190 -70.0590 57° Northeast 479 551 37,000  Level FlightAware ADS-B
Wed 08:06:42 PM 44.3670 -69.9540 57° Northeast 477 549 37,000  Level FlightAware ADS-B
Wed 08:07:22 PM 44.4140 -69.8520 57° Northeast 475 547 37,000  Level FlightAware ADS-B
Wed 08:08:07 PM 44.4680 -69.7320 58° Northeast 476 548 37,000  Level FlightAware ADS-B
Wed 08:08:47 PM 44.5140 -69.6290 58° Northeast 477 549 37,000  Level FlightAware ADS-B
Wed 08:09:32 PM 44.5670 -69.5140 57° Northeast 484 557 37,000  Level FlightAware ADS-B
Wed 08:10:12 PM 44.6150 -69.4060 58° Northeast 486 559 37,000  Level FlightAware ADS-B
Wed 08:10:52 PM 44.6620 -69.3000 58° Northeast 485 558 37,000  Level FlightAware ADS-B
Wed 08:11:32 PM 44.7100 -69.1940 57° Northeast 481 554 37,000  Level FlightAware ADS-B
Wed 08:12:17 PM 44.7630 -69.0720 59° Northeast 481 554 37,000  Level FlightAware ADS-B
Wed 08:12:57 PM 44.8090 -68.9680 58° Northeast 480 552 37,000  Level FlightAware ADS-B
Wed 08:13:42 PM 44.8620 -68.8490 58° Northeast 481 554 37,000  Level FlightAware ADS-B
Wed 08:14:22 PM 44.9100 -68.7380 59° Northeast 483 556 37,000  Level FlightAware ADS-B
Wed 08:15:02 PM 44.9550 -68.6350 58° Northeast 487 560 37,000  Level FlightAware ADS-B
Wed 08:15:47 PM 45.0080 -68.5140 58° Northeast 488 562 37,000  Level FlightAware ADS-B
Wed 08:16:27 PM 45.0560 -68.4030 58° Northeast 488 562 37,000  Level FlightAware ADS-B
Wed 08:17:12 PM 45.1100 -68.2780 58° Northeast 486 559 37,000  Level FlightAware ADS-B
Wed 08:17:52 PM 45.1550 -68.1740 58° Northeast 487 560 37,000  Level FlightAware ADS-B
Wed 08:18:32 PM 45.2010 -68.0670 59° Northeast 490 564 37,000  Level FlightAware ADS-B
Wed 08:19:17 PM 45.2540 -67.9420 59° Northeast 487 560 37,000  Level FlightAware ADS-B
Wed 08:19:57 PM 45.3070 -67.8380 54° Northeast 482 555 37,000  Level FlightAware ADS-B
Wed 08:20:42 PM 45.3760 -67.7360 46° Northeast 474 545 37,000  Level FlightAware ADS-B
Wed 08:21:22 PM 45.4440 -67.6600 38° Northeast 470 541 37,000  Level FlightAware ADS-B
Wed 08:21:57 PM 45.5100 -67.6050 30° Northeast 469 540 37,000  Level FlightAware ADS-B
Wed 08:22:37 PM 45.5830 -67.5540 26° Northeast 467 537 37,000  Level FlightAware ADS-B
Wed 08:23:27 PM 45.6840 -67.4810 27° Northeast 459 528 37,000  Level FlightAware ADS-B
Wed 08:24:07 PM 45.7600 -67.4240 28° Northeast 456 525 37,000  Level FlightAware ADS-B
Wed 08:24:52 PM 45.8450 -67.3600 28° Northeast 457 526 37,000  Level FlightAware ADS-B
Wed 08:25:32 PM 45.9220 -67.3010 28° Northeast 457 526 37,000  Level FlightAware ADS-B
Wed 08:26:12 PM 45.9970 -67.2440 28° Northeast 456 525 37,000  Level FlightAware ADS-B
Wed 08:26:57 PM 46.0770 -67.1830 28° Northeast 456 525 37,000  Level FlightAware ADS-B
Wed 08:27:37 PM 46.1590 -67.1200 28° Northeast 463 533 37,000  Level FlightAware ADS-B
Wed 08:28:22 PM 46.2420 -67.0560 28° Northeast 463 533 37,000  Level FlightAware ADS-B
Wed 08:29:12 PM 46.3370 -66.9830 28° Northeast 463 533 37,000  Level FlightAware ADS-B
Wed 08:29:57 PM 46.4130 -66.9240 28° Northeast 463 533 37,000  Level FlightAware ADS-B
Wed 08:30:37 PM 46.4770 -66.8750 28° Northeast 463 533 37,000  Level FlightAware ADS-B
Wed 08:31:17 PM 46.5410 -66.8250 28° Northeast 463 533 37,000  Level FlightAware ADS-B
Wed 08:31:57 PM 46.6060 -66.7750 28° Northeast 463 533 37,000  Level FlightAware ADS-B
Wed 08:32:47 PM 46.6860 -66.7130 28° Northeast 463 533 37,000  Level FlightAware ADS-B
Wed 08:33:27 PM 46.7500 -66.6630 28° Northeast 463 533 37,000  Level FlightAware ADS-B
Wed 08:34:07 PM 46.8150 -66.6130 28° Northeast 463 533 37,000  Level FlightAware ADS-B
Wed 08:34:47 PM 46.8790 -66.5630 28° Northeast 463 533 37,000  Level FlightAware ADS-B
Wed 08:35:37 PM 46.9590 -66.5010 28° Northeast 463 533 37,000  Level FlightAware ADS-B
Wed 08:36:17 PM 47.0240 -66.4500 28° Northeast 463 533 37,000  Level FlightAware ADS-B
Wed 08:36:57 PM 47.0880 -66.4000 28° Northeast 463 533 37,000  Level FlightAware ADS-B
Wed 08:37:37 PM 47.1520 -66.3500 28° Northeast 463 533 37,000  Level FlightAware ADS-B
Wed 08:38:27 PM 47.2330 -66.2870 28° Northeast 463 533 37,000  Level FlightAware ADS-B
Wed 08:39:07 PM 47.2970 -66.2370 28° Northeast 463 533 37,000  Level FlightAware ADS-B
Wed 08:39:30 PM 47.5167 -66.0333 28° Northeast 480 552 37,000  Level Gander Center
Wed 08:40:30 PM 47.6333 -65.9500 26° Northeast 480 552 37,000  Level Gander Center
Wed 08:41:19 PM 47.7167 -65.8500 39° Northeast 480 552 37,000  Level Gander Center
Wed 08:42:19 PM 47.8333 -65.7667 26° Northeast 480 552 37,000  Level Gander Center
Wed 08:43:19 PM 47.9667 -65.6667 27° Northeast 490 564 37,000  Level Gander Center
Wed 08:44:19 PM 48.0667 -65.5833 29° Northeast 480 552 37,000  Level Gander Center
Wed 08:45:19 PM 48.1833 -65.4667 34° Northeast 490 564 37,000  Level Gander Center
Wed 08:46:19 PM 48.3000 -65.3833 25° Northeast 490 564 37,000  Level Gander Center
Wed 08:47:19 PM 48.4333 -65.2667 30° Northeast 490 564 37,000  Level Gander Center
Wed 08:48:19 PM 48.5500 -65.1667 30° Northeast 490 564 37,000  Level Gander Center
Wed 08:49:19 PM 48.6500 -65.0833 29° Northeast 490 564 37,000  Level Gander Center
Wed 08:50:19 PM 48.7833 -64.9667 30° Northeast 490 564 37,000  Level Gander Center
Wed 08:51:19 PM 48.9000 -64.8667 29° Northeast 490 564 37,000  Level Gander Center
Wed 08:52:19 PM 49.0333 -64.7500 30° Northeast 490 564 37,000  Level Gander Center
Wed 08:53:19 PM 49.1333 -64.6500 33° Northeast 490 564 37,000  Level Gander Center
Wed 08:54:19 PM 49.2667 -64.5333 30° Northeast 490 564 37,000  Level Gander Center
Wed 08:55:19 PM 49.3667 -64.4333 33° Northeast 490 564 37,000  Level Gander Center
Wed 08:56:19 PM 49.5000 -64.3500 22° Northeast 490 564 37,000  Level Gander Center
Wed 08:57:19 PM 49.6167 -64.2167 37° Northeast 500 575 37,000  Level Gander Center
Wed 08:58:19 PM 49.7333 -64.1333 25° Northeast 500 575 37,000  Level Gander Center
Wed 08:59:19 PM 49.8500 -64.0000 36° Northeast 500 575 37,000  Level Gander Center
Wed 09:00:19 PM 49.9667 -63.9000 29° Northeast 490 564 37,000  Level Gander Center
Wed 09:01:19 PM 50.1000 -63.8167 22° Northeast 500 575 37,000  Level Gander Center
Wed 09:02:19 PM 50.2167 -63.6833 36° Northeast 500 575 37,000  Level Gander Center
Wed 09:03:19 PM 50.3333 -63.5833 29° Northeast 500 575 37,000  Level Gander Center
Wed 09:04:19 PM 50.4500 -63.4667 32° Northeast 500 575 37,000  Level Gander Center
Wed 09:05:19 PM 50.5833 -63.3667 25° Northeast 500 575 37,000  Level Gander Center
Wed 09:06:19 PM 50.6833 -63.2333 40° Northeast 510 587 37,000  Level Gander Center
Wed 09:07:19 PM 50.8167 -63.1333 25° Northeast 500 575 37,000  Level Gander Center
Wed 09:08:19 PM 50.9500 -63.0000 32° Northeast 510 587 37,000  Level Gander Center
Wed 09:09:19 PM 51.0667 -62.9000 28° Northeast 510 587 37,000  Level Gander Center
Wed 09:10:19 PM 51.1833 -62.7833 32° Northeast 510 587 37,000  Level Gander Center
Wed 09:11:19 PM 51.3000 -62.6667 32° Northeast 500 575 37,000  Level Gander Center
Wed 09:12:19 PM 51.4167 -62.5500 32° Northeast 510 587 37,000  Level Gander Center
Wed 09:13:19 PM 51.5500 -62.4167 32° Northeast 520 598 37,000  Level Gander Center
Wed 09:14:19 PM 51.6667 -62.3000 32° Northeast 520 598 37,000  Level Gander Center
Wed 09:15:19 PM 51.7833 -62.1667 35° Northeast 520 598 37,000  Level Gander Center
Wed 09:16:19 PM 51.9000 -62.0333 35° Northeast 510 587 37,000  Level Gander Center
Wed 09:17:19 PM 52.0167 -61.9333 28° Northeast 510 587 37,000  Level Gander Center
Wed 09:18:19 PM 52.1500 -61.8000 32° Northeast 510 587 37,000  Level Gander Center
Wed 09:19:19 PM 52.2667 -61.7000 28° Northeast 500 575 37,000  Level Gander Center
Wed 09:20:19 PM 52.3833 -61.5500 38° Northeast 500 575 37,000  Level Gander Center
Wed 09:21:19 PM 52.5000 -61.4000 38° Northeast 510 587 37,000  Level Gander Center
Wed 09:22:19 PM 52.6167 -61.2500 38° Northeast 510 587 37,000  Level Gander Center
Wed 09:23:19 PM 52.7167 -61.1167 39° Northeast 510 587 37,000  Level Gander Center
Wed 09:24:19 PM 52.8333 -60.9500 41° Northeast 500 575 37,000  Level Gander Center
Wed 09:25:19 PM 52.9333 -60.8167 39° Northeast 500 575 37,000  Level Gander Center
Wed 09:26:19 PM 53.0333 -60.6667 42° Northeast 490 564 37,000  Level Gander Center
Wed 09:27:19 PM 53.1500 -60.5333 34° Northeast 490 564 37,000  Level Gander Center
Wed 09:29:25 PM 53.3500 -60.2167 43° Northeast 490 564 37,000  Level Moncton Center
Wed 09:30:19 PM 53.4500 -60.0667 42° Northeast 490 564 37,000  Level Gander Center
Wed 09:31:19 PM 53.5500 -59.9333 38° Northeast 490 564 37,000  Level Gander Center
Wed 09:32:19 PM 53.6500 -59.7833 42° Northeast 490 564 37,000  Level Gander Center
Wed 09:33:19 PM 53.7667 -59.6500 34° Northeast 490 564 37,000  Level Gander Center
Wed 09:34:19 PM 53.8667 -59.5000 41° Northeast 490 564 37,000  Level Gander Center
Wed 09:35:19 PM 53.9667 -59.3500 41° Northeast 490 564 37,000  Level Gander Center
Wed 09:36:19 PM 54.0667 -59.2000 41° Northeast 490 564 37,000  Level Gander Center
Wed 09:37:19 PM 54.1833 -59.0333 40° Northeast 490 564 37,000  Level Gander Center
Wed 09:38:19 PM 54.2833 -58.9000 38° Northeast 490 564 37,000  Level Gander Center
Wed 09:39:19 PM 54.3833 -58.7333 44° Northeast 490 564 37,000  Level Gander Center
Wed 09:40:19 PM 54.4833 -58.5833 41° Northeast 480 552 37,000  Level Gander Center
Wed 09:41:19 PM 54.6000 -58.4333 37° Northeast 490 564 37,000  Level Gander Center
Wed 09:42:19 PM 54.7000 -58.2667 44° Northeast 490 564 37,000  Level Gander Center
Wed 09:43:19 PM 54.8000 -58.1167 41° Northeast 490 564 37,000  Level Gander Center
Wed 09:44:19 PM 54.8833 -57.9333 52° Northeast 490 564 37,000  Level Gander Center
Wed 09:45:19 PM 55.0000 -57.8167 30° Northeast 490 564 37,000  Level Gander Center
Wed 09:46:19 PM 55.1000 -57.6333 46° Northeast 490 564 37,000  Level Gander Center
Wed 09:47:19 PM 55.2000 -57.4833 41° Northeast 490 564 37,000  Level Gander Center
Wed 09:48:19 PM 55.3000 -57.3167 43° Northeast 490 564 37,000  Level Gander Center
Wed 09:49:19 PM 55.4000 -57.1667 40° Northeast 490 564 37,000  Level Gander Center
Wed 09:50:19 PM 55.5000 -56.9833 46° Northeast 490 564 37,000  Level Gander Center
Wed 09:51:19 PM 55.5667 -56.7667 61° Northeast 510 587 37,000  Level Gander Center
Wed 09:52:19 PM 55.6333 -56.5500 61° Northeast 510 587 37,000  Level Gander Center
Wed 09:53:19 PM 55.6833 -56.2667 73° East 520 598 37,000  Level Gander Center
Wed 09:54:19 PM 55.7500 -56.0500 61° Northeast 520 598 37,000  Level Gander Center
Wed 09:55:19 PM 55.8000 -55.8167 69° East 520 598 37,000  Level Gander Center
Wed 09:56:19 PM 55.8500 -55.6000 68° East 510 587 37,000  Level Gander Center
Wed 09:57:19 PM 55.9000 -55.3500 70° East 520 598 37,000  Level Gander Center
Wed 09:58:19 PM 55.9500 -55.1000 70° East 520 598 37,000  Level Gander Center
Wed 09:59:19 PM 56.0000 -54.8333 71° East 520 598 37,000  Level Gander Center
Wed 10:00:19 PM 56.0500 -54.6333 66° East 530 610 37,000  Level Gander Center
Wed 10:01:19 PM 56.1000 -54.3833 70° East 530 610 37,000  Level Gander Center
Wed 10:02:19 PM 56.1500 -54.1333 70° East 520 598 37,000  Level Gander Center
Wed 10:03:19 PM 56.2000 -53.8833 70° East 530 610 37,000  Level Gander Center
Wed 10:04:19 PM 56.2500 -53.6333 70° East 530 610 37,000  Level Gander Center
Wed 10:05:19 PM 56.3167 -53.4167 61° Northeast 520 598 37,000  Level Gander Center
Wed 10:06:19 PM 56.3667 -53.2000 67° East 510 587 37,000  Level Gander Center
Wed 10:07:19 PM 56.4167 -52.9333 71° East 520 598 37,000  Level Gander Center
Wed 10:08:19 PM 56.4667 -52.6833 70° East 520 598 37,000  Level Gander Center
Wed 10:09:19 PM 56.5167 -52.4333 70° East 530 610 37,000  Level Gander Center
Wed 10:10:30 PM 56.5833 -52.1500 67° East 520 598 37,000  Level Gander Center
Wed 10:11:30 PM 56.6333 -51.8833 71° East 520 598 37,000  Level Gander Center
Wed 10:13:00 PM 56.7046 -51.5311 70° East  Level FlightAware Approximate
Wed 10:18:27 PM 56.9500 -50.1167 76° East 520 598 37,000  Level Gander Center
Wed 10:19:27 PM 56.9833 -49.8500 77° East 530 610 37,000  Level Gander Center
Wed 10:20:00 PM 57.0182 -49.8668 76° East  Level FlightAware Approximate
Wed 10:21:00 PM 57.0514 -49.6216 76° East  Level FlightAware Approximate
Wed 10:21:00 PM 57.0395 -49.4724 75° East  Level FlightAware Approximate
Wed 10:21:46 PM 57.0833 -49.2667 75° East 530 610 37,000  Level Gander Center
Wed 10:22:00 PM 57.0840 -49.3759 76° East  Level FlightAware Approximate
Wed 10:22:46 PM 57.1000 -48.9833 84° East 530 610 37,000  Level Gander Center
Wed 10:23:00 PM 57.1162 -49.1297 76° East  Level FlightAware Approximate
Wed 10:23:46 PM 57.1500 -48.7167 71° East 530 610 37,000  Level Gander Center
Wed 10:24:46 PM 57.1667 -48.4667 83° East 530 610 37,000  Level Gander Center
Wed 10:25:46 PM 57.2167 -48.2000 71° East 530 610 37,000  Level Gander Center
Wed 10:26:46 PM 57.2500 -47.9333 77° East 530 610 37,000  Level Gander Center
Wed 10:27:46 PM 57.2833 -47.6667 77° East 530 610 37,000  Level Gander Center
Wed 10:28:46 PM 57.3167 -47.4167 76° East 530 610 37,000  Level Gander Center
Wed 10:29:46 PM 57.3333 -47.1500 83° East 530 610 37,000  Level Gander Center
Wed 10:30:46 PM 57.3667 -46.8500 78° East 530 610 37,000  Level Gander Center
Wed 10:31:46 PM 57.4167 -46.5833 71° East 530 610 37,000  Level Gander Center
Wed 10:32:46 PM 57.4333 -46.3333 83° East 530 610 37,000  Level Gander Center
Wed 10:33:46 PM 57.4667 -46.0667 77° East 530 610 37,000  Level Gander Center
Wed 10:34:46 PM 57.4833 -45.8000 83° East 530 610 37,000  Level Gander Center
Wed 10:35:46 PM 57.5167 -45.5333 77° East 530 610 37,000  Level Gander Center
Wed 10:36:46 PM 57.5333 -45.2667 83° East 520 598 37,000  Level Gander Center
Wed 10:37:46 PM 57.5833 -45.0000 71° East 530 610 37,000  Level Gander Center
Wed 10:38:46 PM 57.6000 -44.7333 83° East 520 598 37,000  Level Gander Center
Wed 10:39:46 PM 57.6333 -44.4667 77° East 520 598 37,000  Level Gander Center
Wed 10:40:46 PM 57.6500 -44.2000 83° East 520 598 37,000  Level Gander Center
Wed 10:41:46 PM 57.6833 -43.9667 75° East 520 598 37,000  Level Gander Center
Wed 10:42:46 PM 57.7000 -43.7000 83° East 520 598 37,000  Level Gander Center
Wed 10:43:46 PM 57.7333 -43.4333 77° East 520 598 37,000  Level Gander Center
Wed 10:44:46 PM 57.7333 -43.1667 90° East 520 598 37,000  Level Gander Center
Wed 10:45:46 PM 57.7667 -42.9000 77° East 510 587 37,000  Level Gander Center
Wed 10:46:46 PM 57.7833 -42.6333 83° East 520 598 37,000  Level Gander Center
Wed 10:47:46 PM 57.8167 -42.3667 77° East 520 598 37,000  Level Gander Center
Wed 10:48:46 PM 57.8167 -42.1000 90° East 520 598 37,000  Level Gander Center
Wed 10:49:46 PM 57.8333 -41.8333 83° East 520 598 37,000  Level Gander Center
Wed 10:50:46 PM 57.8667 -41.6000 75° East 520 598 37,000  Level Gander Center
Wed 10:51:46 PM 57.8833 -41.3333 83° East 520 598 37,000  Level Gander Center
Wed 10:52:46 PM 57.9000 -41.0500 84° East 520 598 37,000  Level Gander Center
Wed 10:53:46 PM 57.9167 -40.7833 83° East 520 598 37,000  Level Gander Center
Wed 10:54:46 PM 57.9333 -40.5167 83° East 520 598 37,000  Level Gander Center
Wed 10:55:46 PM 57.9500 -40.2500 83° East 520 598 37,000  Level Gander Center
Wed 10:56:46 PM 57.9667 -39.9833 83° East 520 598 37,000  Level Gander Center
Wed 10:57:46 PM 57.9833 -39.7167 83° East 520 598 37,000  Level Gander Center
Wed 10:58:46 PM 57.9833 -39.4500 90° East 530 610 37,000  Level Gander Center
Wed 10:59:46 PM 58.0000 -39.1667 84° East 530 610 37,000  Level Gander Center
Wed 11:00:46 PM 58.0167 -38.9000 83° East 530 610 37,000  Level Gander Center
Wed 11:01:46 PM 58.0167 -38.6167 90° East 530 610 37,000  Level Gander Center
Wed 11:02:46 PM 58.0167 -38.3500 90° East 530 610 37,000  Level Gander Center
Wed 11:03:46 PM 58.0333 -38.0667 84° East 530 610 37,000  Level Gander Center
Wed 11:04:46 PM 58.0333 -37.8000 90° East 520 598 37,000  Level Gander Center
Wed 11:05:46 PM 58.0333 -37.5333 90° East 520 598 37,000  Level Gander Center
Wed 11:06:46 PM 58.0500 -37.2833 83° East 520 598 37,000  Level Gander Center
Wed 11:07:46 PM 58.0500 -37.0167 90° East 520 598 37,000 150 Level Gander Center
Wed 11:08:46 PM 58.0667 -36.7333 84° East 520 598 37,300 450 Climbing Gander Center
Wed 11:09:46 PM 58.0667 -36.4667 90° East 530 610 37,900 450 Climbing Gander Center
Wed 11:10:46 PM 58.0500 -36.1667 96° East 530 610 38,200 550 Climbing Gander Center
Wed 11:11:46 PM 58.0500 -35.9167 90° East 530 610 39,000 Climbing Gander Center
Wed 11:13:00 PM 58.0543 -35.5967 88° East  Level FlightAware Approximate
Wed 11:20:00 PM 58.0636 -33.7799 89° East  Level FlightAware Approximate
Wed 11:21:00 PM 58.0628 -33.5203 90° East  Level FlightAware Approximate
Wed 11:22:00 PM 58.0615 -33.2607 90° East  Level FlightAware Approximate
Wed 11:23:00 PM 58.0597 -33.0012 91° East  Level FlightAware Approximate
Wed 11:24:00 PM 58.0573 -32.7416 91° East  Level FlightAware Approximate
Wed 11:25:00 PM 58.0544 -32.4822 91° East  Level FlightAware Approximate
Wed 11:26:00 PM 58.0510 -32.2227 91° East  Level FlightAware Approximate
Wed 11:27:00 PM 58.0471 -31.9634 92° East  Level FlightAware Approximate
Wed 11:28:00 PM 58.0426 -31.7041 92° East  Level FlightAware Approximate
Wed 11:29:00 PM 58.0376 -31.4448 92° East  Level FlightAware Approximate
Wed 11:30:00 PM 58.0321 -31.1856 92° East  Level FlightAware Approximate
Wed 11:31:00 PM 58.0260 -30.9265 92° East  Level FlightAware Approximate
Wed 11:32:00 PM 58.0194 -30.6675 93° East  Level FlightAware Approximate
Wed 11:33:00 PM 58.0123 -30.4087 93° East  Level FlightAware Approximate
Wed 11:34:00 PM 58.0047 -30.1499 93° East  Level FlightAware Approximate
Wed 11:35:00 PM 58.0031 -29.8921 87° East  Level FlightAware Approximate
Wed 11:36:00 PM 58.0101 -29.6333 87° East  Level FlightAware Approximate
Wed 11:37:00 PM 58.0165 -29.3743 87° East  Level FlightAware Approximate
Wed 11:38:00 PM 58.0225 -29.1153 87° East  Level FlightAware Approximate
Wed 11:39:00 PM 58.0279 -28.8562 88° East  Level FlightAware Approximate
Wed 11:40:00 PM 58.0328 -28.5970 88° East  Level FlightAware Approximate
Wed 11:41:00 PM 58.0399 -28.3380 87° East  Level FlightAware Approximate
Wed 11:42:00 PM 58.0469 -28.0789 87° East  Level FlightAware Approximate
Wed 11:43:00 PM 58.0533 -27.8197 87° East  Level FlightAware Approximate
Wed 11:44:00 PM 58.0593 -27.5604 87° East  Level FlightAware Approximate
Wed 11:45:00 PM 58.0647 -27.3010 88° East  Level FlightAware Approximate
Wed 11:46:00 PM 58.0695 -27.0416 88° East  Level FlightAware Approximate
Wed 11:47:00 PM 58.0739 -26.7820 88° East  Level FlightAware Approximate
Wed 11:48:00 PM 58.0777 -26.5225 88° East  Level FlightAware Approximate
Wed 11:49:00 PM 58.0810 -26.2628 89° East  Level FlightAware Approximate
Wed 11:50:00 PM 58.0837 -26.0032 89° East  Level FlightAware Approximate
Wed 11:51:00 PM 58.0859 -25.7435 89° East  Level FlightAware Approximate
Wed 11:52:00 PM 58.0877 -25.4837 89° East  Level FlightAware Approximate
Wed 11:53:00 PM 58.0888 -25.2240 89° East  Level FlightAware Approximate
Wed 11:54:00 PM 58.0895 -24.9642 90° East  Level FlightAware Approximate
Wed 11:55:00 PM 58.0896 -24.7044 90° East  Level FlightAware Approximate
Wed 11:56:00 PM 58.0891 -24.4446 90° East  Level FlightAware Approximate
Wed 11:57:00 PM 58.0882 -24.1849 90° East  Level FlightAware Approximate
Wed 11:58:00 PM 58.0867 -23.9251 91° East  Level FlightAware Approximate
Wed 11:59:00 PM 58.0847 -23.6654 91° East  Level FlightAware Approximate
Thu 12:00:00 AM 58.0822 -23.4057 91° East  Level FlightAware Approximate
Thu 12:01:00 AM 58.0792 -23.1460 91° East  Level FlightAware Approximate
Thu 12:02:00 AM 58.0756 -22.8864 91° East  Level FlightAware Approximate
Thu 12:03:00 AM 58.0715 -22.6269 92° East  Level FlightAware Approximate
Thu 12:04:00 AM 58.0668 -22.3674 92° East  Level FlightAware Approximate
Thu 12:05:00 AM 58.0616 -22.1080 92° East  Level FlightAware Approximate
Thu 12:06:00 AM 58.0560 -21.8487 92° East  Level FlightAware Approximate
Thu 12:07:00 AM 58.0497 -21.5895 92° East  Level FlightAware Approximate
Thu 12:08:00 AM 58.0430 -21.3303 93° East  Level FlightAware Approximate
Thu 12:09:00 AM 58.0357 -21.0713 93° East  Level FlightAware Approximate
Thu 12:10:00 AM 58.0279 -20.8123 93° East  Level FlightAware Approximate
Thu 12:11:00 AM 58.0196 -20.5535 93° East  Level FlightAware Approximate
Thu 12:12:00 AM 58.0107 -20.2948 94° East  Level FlightAware Approximate
Thu 12:13:00 AM 58.0014 -20.0362 94° East  Level FlightAware Approximate
Thu 12:14:00 AM 57.9961 -19.7773 92° East  Level FlightAware Approximate
Thu 12:15:00 AM 57.9910 -19.5184 92° East  Level FlightAware Approximate
Thu 12:16:00 AM 57.9854 -19.2596 92° East  Level FlightAware Approximate
Thu 12:17:00 AM 57.9793 -19.0008 92° East  Level FlightAware Approximate
Thu 12:18:00 AM 57.9727 -18.7422 93° East  Level FlightAware Approximate
Thu 12:19:00 AM 57.9655 -18.4836 93° East  Level FlightAware Approximate
Thu 12:20:00 AM 57.9579 -18.2252 93° East  Level FlightAware Approximate
Thu 12:21:00 AM 57.9497 -17.9669 93° East  Level FlightAware Approximate
Thu 12:22:00 AM 57.9409 -17.7087 94° East  Level FlightAware Approximate
Thu 12:23:00 AM 57.9317 -17.4506 94° East  Level FlightAware Approximate
Thu 12:24:00 AM 57.9219 -17.1926 94° East  Level FlightAware Approximate
Thu 12:25:00 AM 57.9116 -16.9348 94° East  Level FlightAware Approximate
Thu 12:26:00 AM 57.9008 -16.6772 94° East  Level FlightAware Approximate
Thu 12:27:00 AM 57.8895 -16.4197 95° East  Level FlightAware Approximate
Thu 12:28:00 AM 57.8776 -16.1624 95° East  Level FlightAware Approximate
Thu 12:29:00 AM 57.8652 -15.9052 95° East  Level FlightAware Approximate
Thu 12:30:00 AM 57.8523 -15.6482 95° East  Level FlightAware Approximate
Thu 12:31:00 AM 57.8389 -15.3915 95° East  Level FlightAware Approximate
Thu 12:32:00 AM 57.8250 -15.1349 96° East  Level FlightAware Approximate
Thu 12:33:00 AM 57.8105 -14.8785 96° East  Level FlightAware Approximate
Thu 12:34:00 AM 57.7955 -14.6223 96° East  Level FlightAware Approximate
Thu 12:35:00 AM 57.7800 -14.3664 96° East  Level FlightAware Approximate
Thu 12:36:00 AM 57.7640 -14.1106 97° East  Level FlightAware Approximate
Thu 12:36:52 AM 58.0600 -12.6340 97° East 39,000  Level FlightAware ADS-B
Thu 12:37:00 AM 57.7475 -13.8551 97° East  Level FlightAware Approximate
Thu 12:37:12 AM 58.0580 -12.5340 92° East 531 611 39,000  Level FlightAware ADS-B
Thu 12:37:57 AM 58.0540 -12.3320 92° East 530 610 39,000  Level FlightAware ADS-B
Thu 12:38:37 AM 58.0490 -12.1360 93° East 526 605 39,000  Level FlightAware ADS-B
Thu 12:40:12 AM 58.0410 -11.7370 92° East 526 605 39,000  Level FlightAware ADS-B
Thu 12:40:57 AM 58.0340 -11.5260 93° East 529 609 39,000  Level FlightAware ADS-B
Thu 12:41:42 AM 58.0280 -11.3050 93° East 530 610 39,000  Level FlightAware ADS-B
Thu 12:42:22 AM 58.0220 -11.1180 93° East 532 612 39,000  Level FlightAware ADS-B
Thu 12:43:02 AM 58.0170 -10.9380 93° East 534 615 39,000  Level FlightAware ADS-B
Thu 12:43:47 AM 58.0100 -10.7250 93° East 536 617 39,000  Level FlightAware ADS-B
Thu 12:44:27 AM 58.0030 -10.5360 94° East 537 618 39,000  Level FlightAware ADS-B
Thu 12:45:07 AM 57.9980 -10.3500 93° East 539 620 39,000  Level FlightAware ADS-B
Thu 12:45:52 AM 58.0020 -10.1390 88° East 538 619 39,000  Level FlightAware ADS-B
Thu 12:46:32 AM 57.9930 -9.9490 95° East 528 608 39,000  Level FlightAware ADS-B
Thu 12:47:17 AM 57.9700 -9.7460 102° East 528 608 39,000  Level FlightAware ADS-B
Thu 12:47:57 AM 57.9480 -9.5640 103° East 529 609 39,000  Level FlightAware ADS-B
Thu 12:48:42 AM 57.9240 -9.3710 103° East 528 608 39,000  Level FlightAware ADS-B
Thu 12:49:22 AM 57.9020 -9.1860 103° East 527 606 39,000  Level FlightAware ADS-B
Thu 12:50:02 AM 57.8800 -9.0140 103° East 524 603 39,000 -2,045 Level FlightAware ADS-B
Thu 12:50:06 AM 57.8754 -8.9767 103° East 480 552 37,500 -5,625 Descending FlightAware UK
Thu 12:50:18 AM 57.8687 -8.9253 103° East 480 552 37,500  Level FlightAware UK
Thu 12:50:36 AM 57.8584 -8.8457 104° East 476 548 37,500 3,750 Level FlightAware UK
Thu 12:50:42 AM 57.8560 -8.8280 104° East 523 602 39,000  Climbing FlightAware ADS-B
Thu 12:51:00 AM 57.8449 -8.7395 104° East 478 550 37,500 -2,500 Descending FlightAware UK
Thu 12:51:18 AM 57.8346 -8.6598 104° East 480 552 37,500 3,333 Level FlightAware UK
Thu 12:51:27 AM 57.8310 -8.6300 104° East 528 608 39,000  Climbing FlightAware ADS-B
Thu 12:51:42 AM 57.8210 -8.5532 104° East 482 555 37,500 -2,727 Descending FlightAware UK
Thu 12:52:00 AM 57.8106 -8.4728 104° East 482 555 37,500  Level FlightAware UK
Thu 12:52:18 AM 57.7999 -8.3923 104° East 480 552 37,500 4,091 Level FlightAware UK
Thu 12:52:22 AM 57.8010 -8.4020 104° East 528 608 39,000  Climbing FlightAware ADS-B
Thu 12:52:42 AM 57.7857 -8.2849 104° East 480 552 37,500 -2,368 Descending FlightAware UK
Thu 12:53:00 AM 57.7751 -8.2046 104° East 482 555 37,500 3,600 Level FlightAware UK
Thu 12:53:07 AM 57.7750 -8.2030 104° East 532 612 39,000  Climbing FlightAware ADS-B
Thu 12:53:24 AM 57.7606 -8.0968 104° East 480 552 37,500 -2,571 Descending FlightAware UK
Thu 12:53:42 AM 57.7499 -8.0165 104° East 488 562 37,500 3,913 Level FlightAware UK
Thu 12:53:47 AM 57.7490 -8.0120 104° East 533 613 39,000  Climbing FlightAware ADS-B
Thu 12:54:06 AM 57.7357 -7.9095 104° East 486 559 37,500 -2,432 Descending FlightAware UK
Thu 12:54:24 AM 57.7249 -7.8296 104° East 486 559 37,500 3,462 Level FlightAware UK
Thu 12:54:32 AM 57.7220 -7.8110 104° East 529 609 39,000  Climbing FlightAware ADS-B
Thu 12:54:48 AM 57.7102 -7.7236 104° East 482 555 37,500 -2,647 Descending FlightAware UK
Thu 12:55:06 AM 57.6992 -7.6443 105° East 482 555 37,500 3,750 Level FlightAware UK
Thu 12:55:12 AM 57.6980 -7.6360 105° East 528 608 39,000  Climbing FlightAware ADS-B
Thu 12:55:30 AM 57.6845 -7.5378 105° East 482 555 37,500 -2,500 Descending FlightAware UK
Thu 12:55:48 AM 57.6734 -7.4587 105° East 480 552 37,500 4,091 Level FlightAware UK
Thu 12:55:52 AM 57.6730 -7.4560 105° East 528 608 39,000  Climbing FlightAware ADS-B
Thu 12:56:12 AM 57.6587 -7.3533 105° East 482 555 37,500 -2,368 Descending FlightAware UK
Thu 12:56:30 AM 57.6478 -7.2741 104° East 484 557 37,500 3,600 Level FlightAware UK
Thu 12:56:37 AM 57.6450 -7.2560 104° East 526 605 39,000  Climbing FlightAware ADS-B
Thu 12:56:54 AM 57.6327 -7.1687 104° East 484 557 37,500 -2,571 Descending FlightAware UK
Thu 12:57:12 AM 57.6213 -7.0888 105° East 482 555 37,500 3,913 Level FlightAware UK
Thu 12:57:17 AM 57.6200 -7.0810 105° East 525 604 39,000  Climbing FlightAware ADS-B
Thu 12:57:36 AM 57.6062 -6.9846 105° East 484 557 37,500 -2,432 Descending FlightAware UK
Thu 12:57:54 AM 57.5948 -6.9052 105° East 482 555 37,500 4,286 Level FlightAware UK
Thu 12:57:57 AM 57.5950 -6.9040 105° East 524 603 39,000  Climbing FlightAware ADS-B
Thu 12:58:12 AM 57.5836 -6.8275 105° East 480 552 37,500 -2,727 Descending FlightAware UK
Thu 12:58:30 AM 57.5721 -6.7484 105° East 482 555 37,500 3,000 Level FlightAware UK
Thu 12:58:42 AM 57.5670 -6.7110 105° East 522 601 39,000  Climbing FlightAware ADS-B
Thu 12:59:00 AM 57.5531 -6.6182 105° East 480 552 37,500 -2,500 Descending FlightAware UK
Thu 12:59:18 AM 57.5415 -6.5403 105° East 482 555 37,500  Level FlightAware UK
Thu 12:59:36 AM 57.5299 -6.4624 105° East 482 555 37,500 4,737 Level FlightAware UK
Thu 12:59:37 AM 57.5310 -6.4680 105° East 523 602 39,000  Climbing FlightAware ADS-B
Thu 12:59:54 AM 57.5182 -6.3843 105° East 478 550 37,500 -2,571 Descending FlightAware UK
Thu 01:00:12 AM 57.5065 -6.3062 106° East 476 548 37,500 3,913 Level FlightAware UK
Thu 01:00:17 AM 57.5040 -6.2930 106° East 524 603 39,000  Climbing FlightAware ADS-B
Thu 01:00:37 AM 57.4907 -6.2013 106° East 480 552 37,500 -2,432 Descending FlightAware UK
Thu 01:00:54 AM 57.4790 -6.1238 106° East 482 555 37,500  Level FlightAware UK
Thu 01:01:13 AM 57.4670 -6.0444 106° East 478 550 37,500 3,913 Level FlightAware UK
Thu 01:01:17 AM 57.4680 -6.0500 106° East 529 609 39,000  Climbing FlightAware ADS-B
Thu 01:01:36 AM 57.4510 -5.9404 106° East 480 552 37,500  Descending FlightAware UK
Thu 01:01:47 AM 57.4480 -5.9190 106° East 530 610 39,000  Climbing FlightAware ADS-B
Thu 01:01:55 AM 57.4387 -5.8609 106° East 482 555 37,500 -4,500 Descending FlightAware UK
Thu 01:02:07 AM 57.4306 -5.8084 106° East 482 555 37,500  Level FlightAware UK
Thu 01:02:24 AM 57.4186 -5.7306 106° East 480 552 37,500  Level FlightAware UK
Thu 01:02:43 AM 57.4062 -5.6511 106° East 482 555 37,500  Level FlightAware UK
Thu 01:03:01 AM 57.3939 -5.5723 106° East 482 555 37,500 4,737 Level FlightAware UK
Thu 01:03:02 AM 57.3960 -5.5890 106° East 533 613 39,000  Climbing FlightAware ADS-B
Thu 01:03:18 AM 57.3818 -5.4944 106° East 484 557 37,500 -2,647 Descending FlightAware UK
Thu 01:03:36 AM 57.3693 -5.4159 106° East 482 555 37,500  Level FlightAware UK
Thu 01:03:55 AM 57.3566 -5.3367 106° East 480 552 37,500  Level FlightAware UK
Thu 01:04:13 AM 57.3442 -5.2585 106° East 482 555 37,500 4,091 Level FlightAware UK
Thu 01:04:17 AM 57.3450 -5.2630 106° East 528 608 39,000  Climbing FlightAware ADS-B
Thu 01:04:37 AM 57.3275 -5.1545 106° East 478 550 37,500 -2,432 Descending FlightAware UK
Thu 01:04:54 AM 57.3151 -5.0775 107° East 478 550 37,500 3,600 Level FlightAware UK
Thu 01:05:02 AM 57.3130 -5.0630 107° East 527 606 39,000  Climbing FlightAware ADS-B
Thu 01:05:18 AM 57.2983 -4.9738 107° East 480 552 37,500 -2,571 Descending FlightAware UK
Thu 01:05:37 AM 57.2856 -4.8952 107° East 480 552 37,500 4,737 Level FlightAware UK
Thu 01:05:37 AM 57.2880 -4.9100 107° East 528 608 39,000  Climbing FlightAware ADS-B
Thu 01:05:55 AM 57.2728 -4.8174 107° East 480 552 37,500 -2,500 Descending FlightAware UK
Thu 01:06:13 AM 57.2599 -4.7396 107° East 480 552 37,500 2,813 Level FlightAware UK
Thu 01:06:27 AM 57.2520 -4.6920 107° East 528 608 39,000  Climbing FlightAware ADS-B
Thu 01:06:43 AM 57.2385 -4.6099 107° East 480 552 37,500 -2,647 Descending FlightAware UK
Thu 01:07:01 AM 57.2256 -4.5322 107° East 480 552 37,500 3,750 Level FlightAware UK
Thu 01:07:07 AM 57.2240 -4.5200 107° East 528 608 39,000  Climbing FlightAware ADS-B
Thu 01:07:25 AM 57.2083 -4.4287 107° East 478 550 37,500 -2,500 Descending FlightAware UK
Thu 01:07:43 AM 57.1953 -4.3513 107° East 480 552 37,500 4,091 Level FlightAware UK
Thu 01:07:47 AM 57.1940 -4.3450 107° East 528 608 39,000  Climbing FlightAware ADS-B
Thu 01:08:07 AM 57.1779 -4.2480 107° East 478 550 37,500 -2,368 Descending FlightAware UK
Thu 01:08:25 AM 57.1648 -4.1709 107° East 476 548 37,500 3,600 Level FlightAware UK
Thu 01:08:32 AM 57.1620 -4.1550 107° East 525 604 39,000  Climbing FlightAware ADS-B
Thu 01:08:49 AM 57.1471 -4.0675 107° East 474 545 37,500 -2,571 Descending FlightAware UK
Thu 01:09:07 AM 57.1340 -3.9907 107° East 476 548 37,500 3,913 Level FlightAware UK
Thu 01:09:12 AM 57.1330 -3.9860 107° East 528 608 39,000  Climbing FlightAware ADS-B
Thu 01:09:31 AM 57.1163 -3.8884 107° East 476 548 37,500 -2,432 Descending FlightAware UK
Thu 01:09:49 AM 57.1028 -3.8107 108° East 478 550 37,500 3,462 Level FlightAware UK
Thu 01:09:57 AM 57.0990 -3.7900 108° East 529 609 39,000  Climbing FlightAware ADS-B
Thu 01:10:13 AM 57.0851 -3.7081 108° East 476 548 37,500 -2,647 Descending FlightAware UK
Thu 01:10:31 AM 57.0716 -3.6313 108° East 478 550 37,500 3,750 Level FlightAware UK
Thu 01:10:37 AM 57.0700 -3.6220 108° East 530 610 39,000  Climbing FlightAware ADS-B
Thu 01:10:55 AM 57.0536 -3.5288 108° East 476 548 37,500 -2,500 Descending FlightAware UK
Thu 01:11:13 AM 57.0399 -3.4519 108° East 476 548 37,500 4,091 Level FlightAware UK
Thu 01:11:17 AM 57.0400 -3.4510 108° East 531 611 39,000  Climbing FlightAware ADS-B
Thu 01:11:37 AM 57.0216 -3.3485 108° East 476 548 37,500 -2,368 Descending FlightAware UK
Thu 01:11:55 AM 57.0081 -3.2725 108° East 474 545 37,500 3,600 Level FlightAware UK
Thu 01:12:02 AM 57.0050 -3.2560 108° East 532 612 39,000  Climbing FlightAware ADS-B
Thu 01:12:19 AM 56.9896 -3.1690 108° East 476 548 37,500 -2,571 Descending FlightAware UK
Thu 01:12:37 AM 56.9757 -3.0920 108° East 476 548 37,500 3,913 Level FlightAware UK
Thu 01:12:42 AM 56.9750 -3.0880 108° East 531 611 39,000  Climbing FlightAware ADS-B
Thu 01:13:01 AM 56.9570 -2.9893 108° East 476 548 37,500 -2,432 Descending FlightAware UK
Thu 01:13:19 AM 56.9429 -2.9114 108° East 476 548 37,500 4,286 Level FlightAware UK
Thu 01:13:22 AM 56.9440 -2.9150 108° East 531 611 39,000  Climbing FlightAware ADS-B
Thu 01:13:37 AM 56.9289 -2.8342 108° East 474 545 37,500 -2,727 Descending FlightAware UK
Thu 01:13:55 AM 56.9149 -2.7580 109° East 474 545 37,500 3,000 Level FlightAware UK
Thu 01:14:07 AM 56.9080 -2.7200 109° East 534 615 39,000  Climbing FlightAware ADS-B
Thu 01:14:25 AM 56.8911 -2.6285 109° East 472 543 37,500 -2,500 Descending FlightAware UK
Thu 01:14:43 AM 56.8767 -2.5511 109° East 472 543 37,500 4,091 Level FlightAware UK
Thu 01:14:47 AM 56.8760 -2.5460 109° East 538 619 39,000  Climbing FlightAware ADS-B
Thu 01:15:02 AM 56.8621 -2.4727 109° East 474 545 37,500 -2,813 Descending FlightAware UK
Thu 01:15:19 AM 56.8477 -2.3957 109° East 478 550 37,500 3,000 Level FlightAware UK
Thu 01:15:32 AM 56.8390 -2.3530 109° East 543 625 39,000  Climbing FlightAware ADS-B
Thu 01:15:50 AM 56.8230 -2.2648 109° East 480 552 37,500 -2,500 Descending FlightAware UK
Thu 01:16:08 AM 56.8084 -2.1869 109° East 480 552 37,500 4,091 Level FlightAware UK
Thu 01:16:12 AM 56.8070 -2.1790 109° East 543 625 39,000  Climbing FlightAware ADS-B
Thu 01:16:32 AM 56.7885 -2.0824 109° East 480 552 37,500 -2,368 Descending FlightAware UK
Thu 01:16:50 AM 56.7738 -2.0057 109° East 478 550 37,500 3,600 Level FlightAware UK
Thu 01:16:57 AM 56.7690 -1.9820 109° East 543 625 39,000  Climbing FlightAware ADS-B
Thu 01:17:14 AM 56.7539 -1.9015 109° East 480 552 37,500 -2,571 Descending FlightAware UK
Thu 01:17:32 AM 56.7390 -1.8242 109° East 480 552 37,500  Level FlightAware UK
Thu 01:17:50 AM 56.7241 -1.7471 109° East 476 548 37,500  Level FlightAware UK
Thu 01:18:08 AM 56.7093 -1.6701 109° East 472 543 37,500  Level FlightAware UK
Thu 01:18:26 AM 56.6945 -1.5942 109° East 474 545 37,500  Level FlightAware UK
Thu 01:18:44 AM 56.6794 -1.5174 110° East 478 550 37,500 4,286 Level FlightAware UK
Thu 01:18:47 AM 56.6810 -1.5250 110° East 543 625 39,000  Climbing FlightAware ADS-B
Thu 01:19:02 AM 56.6642 -1.4404 110° East 476 548 37,500 -2,727 Descending FlightAware UK
Thu 01:19:20 AM 56.6488 -1.3625 110° East 478 550 37,500 3,600 Level FlightAware UK
Thu 01:19:27 AM 56.6470 -1.3530 110° East 541 623 39,000  Climbing FlightAware ADS-B
Thu 01:19:44 AM 56.6284 -1.2597 110° East 478 550 37,500 -2,571 Descending FlightAware UK
Thu 01:20:02 AM 56.6131 -1.1827 110° East 478 550 37,500 3,214 Level FlightAware UK
Thu 01:20:12 AM 56.6100 -1.1650 110° East 540 621 39,000  Climbing FlightAware ADS-B
Thu 01:20:32 AM 56.5874 -1.0535 110° East 476 548 37,500  Descending FlightAware UK
Thu 01:20:52 AM 56.5740 -0.9890 110° East 540 621 39,000  Climbing FlightAware ADS-B
Thu 01:21:08 AM 56.5564 -0.9001 110° East 476 548 37,500 -2,647 Descending FlightAware UK
Thu 01:21:26 AM 56.5409 -0.8236 110° East 476 548 37,500  Level FlightAware UK
Thu 01:21:44 AM 56.5251 -0.7464 110° East 476 548 37,500 2,500 Level FlightAware UK
Thu 01:22:02 AM 56.5250 -0.7450 110° East 542 624 39,000  Climbing FlightAware ADS-B
Thu 01:22:20 AM 56.4939 -0.5939 110° East 476 548 37,500 -2,500 Descending FlightAware UK
Thu 01:22:38 AM 56.4783 -0.5178 110° East 478 550 37,500  Level FlightAware UK
Thu 01:22:56 AM 56.4625 -0.4409 110° East 476 548 37,500  Level FlightAware UK
Thu 01:23:14 AM 56.4467 -0.3652 111° Southeast 476 548 37,500  Level FlightAware UK
Thu 01:23:33 AM 56.4308 -0.2886 111° Southeast 474 545 37,500  Level FlightAware UK
Thu 01:23:50 AM 56.4151 -0.2139 111° Southeast 476 548 37,500 2,647 Level FlightAware UK
Thu 01:24:07 AM 56.4050 -0.1660 111° Southeast 540 621 39,000  Climbing FlightAware ADS-B
Thu 01:24:27 AM 56.3832 -0.0623 111° Southeast 476 548 37,500 -2,368 Descending FlightAware UK
Thu 01:24:45 AM 56.3673 0.0130 111° Southeast 474 545 37,500 4,500 Level FlightAware UK
Thu 01:24:47 AM 56.3730 -0.0180 111° Southeast 539 620 39,000  Climbing FlightAware ADS-B
Thu 01:25:03 AM 56.3515 0.0882 111° Southeast 472 543 37,500 -2,647 Descending FlightAware UK
Thu 01:25:21 AM 56.3355 0.1632 111° Southeast 472 543 37,500  Level FlightAware UK
Thu 01:25:39 AM 56.3194 0.2381 111° Southeast 474 545 37,500  Level FlightAware UK
Thu 01:25:57 AM 56.3030 0.3139 111° Southeast 476 548 37,500  Level FlightAware UK
Thu 01:26:27 AM 56.2760 0.4391 111° Southeast 478 550 37,500  Level FlightAware UK
Thu 01:26:51 AM 56.2541 0.5400 111° Southeast 476 548 37,500  Level FlightAware UK
Thu 01:27:09 AM 56.2377 0.6157 111° Southeast 476 548 37,500  Level FlightAware UK
Thu 01:27:27 AM 56.2217 0.6897 111° Southeast 474 545 37,500  Level FlightAware UK
Thu 01:27:45 AM 56.2054 0.7643 111° Southeast 474 545 37,500  Level FlightAware UK
Thu 01:28:15 AM 56.1780 0.8882 112° Southeast 474 545 37,500  Level FlightAware UK
Thu 01:28:33 AM 56.1615 0.9624 112° Southeast 476 548 37,500  Level FlightAware UK
Thu 01:28:57 AM 56.1393 1.0620 112° Southeast 476 548 37,500  Level FlightAware UK
Thu 01:29:15 AM 56.1228 1.1360 112° Southeast 474 545 37,500  Level FlightAware UK
Thu 01:29:33 AM 56.1062 1.2108 112° Southeast 472 543 37,500  Level FlightAware UK
Thu 01:29:51 AM 56.0897 1.2846 112° Southeast 472 543 37,500  Level FlightAware UK
Thu 01:30:09 AM 56.0730 1.3582 112° Southeast 474 545 37,500  Level FlightAware UK
Thu 01:30:28 AM 56.0561 1.4326 112° Southeast 474 545 37,500  Level FlightAware UK
Thu 01:30:45 AM 56.0395 1.5053 112° Southeast 474 545 37,500  Level FlightAware UK
Thu 01:31:03 AM 56.0226 1.5789 112° Southeast 476 548 37,500  Level FlightAware UK
Thu 01:31:22 AM 56.0055 1.6532 112° Southeast 474 545 37,500  Level FlightAware UK
Thu 01:31:40 AM 55.9877 1.7258 114° Southeast 474 545 37,500  Level FlightAware UK
Thu 01:31:58 AM 55.9697 1.7981 114° Southeast 472 543 37,500  Level FlightAware UK
Thu 01:32:16 AM 55.9513 1.8709 114° Southeast 470 541 37,500  Level FlightAware UK
Thu 01:32:34 AM 55.9334 1.9431 114° Southeast 472 543 37,500  Level FlightAware UK
Thu 01:32:52 AM 55.9155 2.0154 114° Southeast 472 543 37,500  Level FlightAware UK
Thu 01:33:10 AM 55.8978 2.0871 114° Southeast 476 548 37,500  Level FlightAware UK
Thu 01:33:28 AM 55.8797 2.1605 114° Southeast 474 545 37,500  Level FlightAware UK
Thu 01:33:46 AM 55.8618 2.2329 114° Southeast 474 545 37,500  Level FlightAware UK
Thu 01:34:04 AM 55.8439 2.3053 114° Southeast 474 545 37,500  Level FlightAware UK
Thu 01:34:22 AM 55.8261 2.3768 114° Southeast 474 545 37,500  Level FlightAware UK
Thu 01:34:40 AM 55.8077 2.4496 114° Southeast 474 545 37,500  Level FlightAware UK
Thu 01:34:58 AM 55.7893 2.5223 114° Southeast 472 543 37,500  Level FlightAware UK
Thu 01:35:16 AM 55.7711 2.5942 114° Southeast 472 543 37,500  Level FlightAware UK
Thu 01:35:34 AM 55.7529 2.6659 114° Southeast 474 545 37,500  Level FlightAware UK
Thu 01:35:58 AM 55.7287 2.7610 114° Southeast 474 545 37,500  Level FlightAware UK
Thu 01:36:16 AM 55.7104 2.8329 114° Southeast 474 545 37,500  Level FlightAware UK
Thu 01:36:40 AM 55.6858 2.9299 114° Southeast 472 543 37,500  Level FlightAware UK
Thu 01:36:58 AM 55.6673 3.0018 115° Southeast 472 543 37,500  Level FlightAware UK
Thu 01:37:16 AM 55.6486 3.0737 115° Southeast 472 543 37,500  Level FlightAware UK
Thu 01:37:34 AM 55.6297 3.1463 115° Southeast 472 543 37,500 2,500 Level FlightAware UK
Thu 01:37:52 AM 55.6160 3.1990 115° Southeast 538 619 39,000  Climbing FlightAware ADS-B
Thu 01:38:10 AM 55.5926 3.2888 115° Southeast 474 545 37,500 -2,500 Descending FlightAware UK
Thu 01:38:28 AM 55.5738 3.3605 115° Southeast 472 543 37,500 3,333 Level FlightAware UK
Thu 01:38:37 AM 55.5720 3.3690 115° Southeast 537 618 39,000  Climbing FlightAware ADS-B
Thu 01:38:52 AM 55.5487 3.4567 115° Southeast 474 545 37,500 -2,727 Descending FlightAware UK
Thu 01:39:10 AM 55.5299 3.5281 115° Southeast 472 543 37,500 3,600 Level FlightAware UK
Thu 01:39:17 AM 55.5280 3.5360 115° Southeast 536 617 39,000  Climbing FlightAware ADS-B
Thu 01:39:34 AM 55.5047 3.6230 115° Southeast 472 543 37,500 -2,571 Descending FlightAware UK
Thu 01:39:52 AM 55.4856 3.6947 115° Southeast 472 543 37,500 3,913 Level FlightAware UK
Thu 01:39:57 AM 55.4900 3.6770 115° Southeast 535 616 39,000  Climbing FlightAware ADS-B
Thu 01:40:22 AM 55.4541 3.8128 115° Southeast 472 543 37,500  Descending FlightAware UK
Thu 01:40:37 AM 55.4440 3.8510 115° Southeast 535 616 39,000  Climbing FlightAware ADS-B
Thu 01:40:58 AM 55.4163 3.9541 115° Southeast 472 543 37,500 -2,250 Descending FlightAware UK
Thu 01:41:17 AM 55.3973 4.0256 115° Southeast 472 543 37,500  Level FlightAware UK
Thu 01:41:35 AM 55.3783 4.0963 115° Southeast 472 543 37,500 2,571 Level FlightAware UK
Thu 01:41:52 AM 55.3670 4.1380 115° Southeast 535 616 39,000  Climbing FlightAware ADS-B
Thu 01:42:17 AM 55.3339 4.2619 115° Southeast 472 543 37,500 -2,093 Descending FlightAware UK
Thu 01:42:35 AM 55.3149 4.3323 115° Southeast 470 541 37,500 3,600 Level FlightAware UK
Thu 01:42:42 AM 55.3170 4.3260 115° Southeast 535 616 39,000  Climbing FlightAware ADS-B
Thu 01:43:05 AM 55.2831 4.4495 115° Southeast 470 541 37,500  Descending FlightAware UK
Thu 01:43:27 AM 55.2630 4.5230 115° Southeast 535 616 39,000  Climbing FlightAware ADS-B
Thu 01:43:47 AM 55.2387 4.6134 115° Southeast 470 541 37,500  Descending FlightAware UK
Thu 01:44:12 AM 55.2160 4.6950 115° Southeast 532 612 39,000  Climbing FlightAware ADS-B
Thu 01:44:35 AM 55.1873 4.8001 115° Southeast 470 541 37,500  Descending FlightAware UK
Thu 01:44:52 AM 55.1720 4.8540 115° Southeast 533 613 39,000 1,452 Climbing FlightAware ADS-B
Thu 01:45:37 AM 55.1230 5.0320 116° Southeast 534 615 39,000 -1,475 Level FlightAware ADS-B
Thu 01:45:53 AM 55.1034 5.1035 116° Southeast 472 543 37,500 -2,647 Descending FlightAware UK
Thu 01:46:11 AM 55.0835 5.1744 116° Southeast 472 543 37,500 3,750 Level FlightAware UK
Thu 01:46:17 AM 55.0800 5.1860 116° Southeast 535 616 39,000  Climbing FlightAware ADS-B
Thu 01:46:41 AM 55.0508 5.2908 116° Southeast 472 543 37,500  Descending FlightAware UK
Thu 01:47:02 AM 55.0300 5.3620 116° Southeast 534 615 39,000  Climbing FlightAware ADS-B
Thu 01:47:23 AM 55.0044 5.4540 116° Southeast 470 541 37,500  Descending FlightAware UK
Thu 01:47:42 AM 54.9860 5.5180 116° Southeast 538 619 39,000  Climbing FlightAware ADS-B
Thu 01:47:59 AM 54.9647 5.5933 116° Southeast 470 541 37,500 -2,571 Descending FlightAware UK
Thu 01:48:17 AM 54.9448 5.6628 116° Southeast 472 543 37,500 3,913 Level FlightAware UK
Thu 01:48:22 AM 54.9420 5.6730 116° Southeast 538 619 39,000 1,800 Climbing FlightAware ADS-B
Thu 01:49:07 AM 54.8940 5.8390 117° Southeast 538 619 39,000  Level FlightAware ADS-B
Thu 01:49:47 AM 54.8500 5.9910 117° Southeast 537 618 39,000  Level FlightAware ADS-B
Thu 01:50:27 AM 54.8030 6.1540 117° Southeast 536 617 39,000 -1,250 Level FlightAware ADS-B
Thu 01:50:59 AM 54.7636 6.2857 117° Southeast 1 1 37,500  Descending FlightAware UK
Thu 01:51:12 AM 54.7540 6.3200 117° Southeast 535 616 39,000  Climbing FlightAware ADS-B
Thu 01:51:29 AM 54.7292 6.4008 117° Southeast 1 1 37,500 -2,571 Descending FlightAware UK
Thu 01:51:47 AM 54.7087 6.4691 117° Southeast 1 1 37,500 3,913 Level FlightAware UK
Thu 01:51:52 AM 54.7080 6.4730 117° Southeast 533 613 39,000  Climbing FlightAware ADS-B
Thu 01:52:11 AM 54.6816 6.5599 117° Southeast 1 1 37,500 -2,432 Descending FlightAware UK
Thu 01:52:29 AM 54.6612 6.6280 117° Southeast 1 1 37,500 3,462 Level FlightAware UK
Thu 01:52:37 AM 54.6570 6.6470 117° Southeast 534 615 39,000  Climbing FlightAware ADS-B
Thu 01:52:53 AM 54.6341 6.7185 117° Southeast 1 1 37,500 -2,647 Descending FlightAware UK
Thu 01:53:11 AM 54.6137 6.7866 117° Southeast 1 1 37,500 3,750 Level FlightAware UK
Thu 01:53:17 AM 54.6120 6.7970 117° Southeast 534 615 39,000  Climbing FlightAware ADS-B
Thu 01:53:35 AM 54.5866 6.8771 117° Southeast 1 1 37,500  Descending FlightAware UK
Thu 01:53:57 AM 54.5680 6.9440 117° Southeast 531 611 39,000 1,343 Climbing FlightAware ADS-B
Thu 01:54:42 AM 54.5160 7.1180 117° Southeast 537 618 39,000  Level FlightAware ADS-B
Thu 01:55:22 AM 54.4790 7.2750 112° Southeast 537 618 39,000  Level FlightAware ADS-B
Thu 01:56:07 AM 54.4360 7.4550 112° Southeast 540 621 39,000  Level FlightAware ADS-B
Thu 01:56:47 AM 54.3970 7.6130 113° Southeast 539 620 39,000  Level FlightAware ADS-B
Thu 01:57:32 AM 54.3530 7.7890 113° Southeast 540 621 39,000  Level FlightAware ADS-B
Thu 01:58:12 AM 54.3130 7.9470 113° Southeast 540 621 39,000  Level FlightAware ADS-B
Thu 01:58:52 AM 54.2740 8.1020 113° Southeast 539 620 39,000  Level FlightAware ADS-B
Thu 01:59:37 AM 54.2300 8.2790 113° Southeast 538 619 39,000  Level FlightAware ADS-B
Thu 02:00:17 AM 54.1910 8.4330 113° Southeast 539 620 39,000  Level FlightAware ADS-B
Thu 02:01:02 AM 54.1460 8.6090 114° Southeast 537 618 39,000  Level FlightAware ADS-B
Thu 02:01:42 AM 54.1060 8.7650 114° Southeast 538 619 39,000 -225 Level FlightAware ADS-B
Thu 02:02:22 AM 54.0650 8.9210 114° Southeast 540 621 38,700 -635 Descending FlightAware ADS-B
Thu 02:03:07 AM 54.0200 9.0960 114° Southeast 543 625 38,100 -494 Descending FlightAware ADS-B
Thu 02:03:47 AM 53.9790 9.2520 114° Southeast 546 628 38,000 -75 Descending FlightAware ADS-B
Thu 02:04:27 AM 53.9370 9.4100 114° Southeast 545 627 38,000  Level FlightAware ADS-B
Thu 02:05:12 AM 53.8930 9.5740 114° Southeast 543 625 38,000  Level FlightAware ADS-B
Thu 02:05:52 AM 53.8510 9.7330 114° Southeast 542 624 38,000  Level FlightAware ADS-B
Thu 02:06:37 AM 53.8030 9.9100 115° Southeast 543 625 38,000 -71 Level FlightAware ADS-B
Thu 02:07:17 AM 53.7610 10.0640 115° Southeast 544 626 37,900 -825 Descending FlightAware ADS-B
Thu 02:07:57 AM 53.7180 10.2180 115° Southeast 545 627 36,900 -1,482 Descending FlightAware ADS-B
Thu 02:08:42 AM 53.6710 10.3880 115° Southeast 541 623 35,800 -1,553 Descending FlightAware ADS-B
Thu 02:09:22 AM 53.6290 10.5400 115° Southeast 542 624 34,700 -1,694 Descending FlightAware ADS-B
Thu 02:10:07 AM 53.5810 10.7130 115° Southeast 537 618 33,400 -2,188 Descending FlightAware ADS-B
Thu 02:10:47 AM 53.5380 10.8630 116° Southeast 535 616 31,600 -2,475 Descending FlightAware ADS-B
Thu 02:11:27 AM 53.4950 11.0140 116° Southeast 530 610 30,100 -2,100 Descending FlightAware ADS-B
Thu 02:12:07 AM 53.4560 11.1530 115° Southeast 525 604 28,800 -2,047 Descending FlightAware ADS-B
Thu 02:12:52 AM 53.4070 11.3220 116° Southeast 516 594 27,200 -2,118 Descending FlightAware ADS-B
Thu 02:13:32 AM 53.3650 11.4670 116° Southeast 504 580 25,800 -2,118 Descending FlightAware ADS-B
Thu 02:14:17 AM 53.3210 11.6200 116° Southeast 498 573 24,200 -2,188 Descending FlightAware ADS-B
Thu 02:14:57 AM 53.2800 11.7590 116° Southeast 484 557 22,700 -2,175 Descending FlightAware ADS-B
Thu 02:15:37 AM 53.2400 11.8930 116° Southeast 474 545 21,300 -2,188 Descending FlightAware ADS-B
Thu 02:16:22 AM 53.1960 12.0410 116° Southeast 461 531 19,600 -2,188 Descending FlightAware ADS-B
Thu 02:17:02 AM 53.1580 12.1690 116° Southeast 447 514 18,200 -1,976 Descending FlightAware ADS-B
Thu 02:17:47 AM 53.1200 12.2960 116° Southeast 434 499 16,800 -1,906 Descending FlightAware ADS-B
Thu 02:18:27 AM 53.0840 12.4170 116° Southeast 422 486 15,500 -1,906 Descending FlightAware ADS-B
Thu 02:19:12 AM 53.0460 12.5420 117° Southeast 410 472 14,100 -1,933 Descending FlightAware ADS-B
Thu 02:19:57 AM 53.0050 12.6750 117° Southeast 400 460 12,600 -1,875 Descending FlightAware ADS-B
Thu 02:20:32 AM 52.9780 12.7630 117° Southeast 392 451 11,600 -1,500 Descending FlightAware ADS-B
Thu 02:21:17 AM 52.9410 12.8860 116° Southeast 381 438 10,600 -933 Descending FlightAware ADS-B
Thu 02:22:02 AM 52.9060 12.9980 117° Southeast 357 411 10,200 -424 Descending FlightAware ADS-B
Thu 02:22:42 AM 52.8770 13.0900 118° Southeast 331 381 10,000 -686 Descending FlightAware ADS-B
Thu 02:23:12 AM 52.8560 13.1590 117° Southeast 331 381 9,400 -1,091 Descending FlightAware ADS-B
Thu 02:23:37 AM 52.8380 13.2160 118° Southeast 322 371 9,000 -764 Descending FlightAware ADS-B
Thu 02:24:07 AM 52.8190 13.2790 117° Southeast 302 348 8,700 -667 Descending FlightAware ADS-B
Thu 02:24:22 AM 52.8100 13.3050 120° Southeast 292 336 8,500 -1,200 Descending FlightAware ADS-B
Thu 02:24:47 AM 52.7940 13.3570 117° Southeast 284 327 7,900 -1,527 Descending FlightAware ADS-B
Thu 02:25:17 AM 52.7760 13.4150 117° Southeast 275 316 7,100 -1,636 Descending FlightAware ADS-B
Thu 02:25:42 AM 52.7620 13.4590 118° Southeast 275 316 6,400 -1,309 Descending FlightAware ADS-B
Thu 02:26:12 AM 52.7500 13.5170 109° East 267 307 5,900 -1,067 Descending FlightAware ADS-B
Thu 02:26:27 AM 52.7460 13.5480 102° East 265 305 5,600 -1,050 Descending FlightAware ADS-B
Thu 02:26:52 AM 52.7390 13.5950 104° East 265 305 5,200 -982 Descending FlightAware ADS-B
Thu 02:27:22 AM 52.7250 13.6530 112° Southeast 261 300 4,700 -1,091 Descending FlightAware ADS-B
Thu 02:27:47 AM 52.7130 13.7000 113° Southeast 259 298 4,200 -982 Descending FlightAware ADS-B
Thu 02:28:17 AM 52.7000 13.7540 112° Southeast 259 298 3,800 -500 Descending FlightAware ADS-B
Thu 02:28:47 AM 52.6860 13.8080 113° Southeast 257 296 3,700 -109 Descending FlightAware ADS-B
Thu 02:29:12 AM 52.6750 13.8440 117° Southeast 237 273 3,700  Level FlightAware ADS-B
Thu 02:29:27 AM 52.6600 13.8630 142° Southeast 228 262 3,700 -353 Level FlightAware ADS-B
Thu 02:32:00 AM 52.5634 13.3087 254° West  Level Estimated
Thu 02:32:02 AM 52.5980 13.6810 254° West 194 223 2,700  Level FlightAware ADS-B
Thu 02:32:17 AM 52.5960 13.6580 262° West 182 209 2,700  Level FlightAware ADS-B
Thu 02:32:42 AM 52.5930 13.6260 261° West 168 193 2,700  Level FlightAware ADS-B
Thu 02:32:57 AM 52.5910 13.6070 260° West 165 190 2,700  Level FlightAware ADS-B
Thu 02:33:22 AM 52.5880 13.5770 261° West 163 188 2,700 -109 Level FlightAware ADS-B
Thu 02:33:52 AM 52.5850 13.5420 262° West 156 180 2,600 -436 Descending FlightAware ADS-B
Thu 02:34:17 AM 52.5820 13.5110 261° West 155 178 2,300 -750 Descending FlightAware ADS-B
Thu 02:34:32 AM 52.5800 13.4950 258° West 153 176 2,100 -800 Descending FlightAware ADS-B
Thu 02:35:02 AM 52.5770 13.4610 262° West 149 171 1,700 -800 Descending FlightAware ADS-B
Thu 02:35:32 AM 52.5730 13.4290 258° West 133 153 1,300 -764 Descending FlightAware ADS-B
Thu 02:35:57 AM 52.5710 13.4030 263° West 136 157 1,000 -764 Descending FlightAware ADS-B
Thu 02:36:27 AM 52.5680 13.3730 261° West 132 152 600 -655 Descending FlightAware ADS-B
Thu 02:36:52 AM 52.5660 13.3500 262° West 133 153 400 -480 Descending FlightAware ADS-B
Thu 02:40:00 AM 52.5597 13.2877 125° Southeast  Level Estimated
Thu 02:41:00 AM 52.5597 13.2877 125° Southeast  Level Estimated
Thu 02:42:00 AM 52.5597 13.2877 125° Southeast  Level Estimated
Thu 02:43:00 AM 52.5597 13.2877 125° Southeast  Level Estimated
Thu 02:44:00 AM 52.5597 13.2877 125° Southeast  Level Estimated
Thu 02:45:00 AM 52.5597 13.2877 125° Southeast  Level Estimated

Login

Don't have an account? Register now (free) for customized features, flight alerts, and more!